KDAL/DAL METAR and TAF weather

Enter ICAO airport designator
Station Type Date Time Source
KDAL METAR 2020/03/28 19:53 UTC NOAA

KDAL 281953Z 30012G22KT 10SM FEW150 BKN250 24/M02 A2983 RMK AO2 SLP093 T02391022


Station Type Date Time Source
KDAL Decoded METAR 2020/03/28 19:53 UTC NOAA

DALLAS LOVE FIELD, TX, United States (KDAL) 32-51N 096-51W 158M
Mar 28, 2020 - 03:53 PM EDT / 2020.03.28 1953 UTC
Wind: from the WNW (300 degrees) at 14 MPH (12 KT) gusting to 25 MPH (22 KT):0
Visibility: 10 mile(s):0
Sky conditions: mostly cloudy
Temperature: 75.0 F (23.9 C)
Dew Point: 28.0 F (-2.2 C)
Relative Humidity: 17%
Pressure (altimeter): 29.83 in. Hg (1010 hPa)
ob: KDAL 281953Z 30012G22KT 10SM FEW150 BKN250 24/M02 A2983 RMK AO2 SLP093 T02391022
cycle: 20

Station Type Date Time Source
KDAL TAF 2020/03/28 18:30 UTC NOAA

TAF KDAL 281726Z 2818/2918 29015G25KT P6SM SCT120
FM282300 26010KT P6SM SCT250
FM290600 34009KT P6SM FEW250
FM291200 02005KT P6SM SKC
FM291500 08007KT P6SM SKC

Example: see airport list